Time;durP1;ratioP1;P1;durP2;ratioP2;P2;SDS_P1;SDS_P2;PMS_P1;PMS_P2;Temp;Humidity;BMP_temperature;BMP_pressure;BME280_temperature;BME280_humidity;BME280_pressure;Samples;Min_cycle;Max_cycle;Signal;HPM_P1;HPM_P2
2022/02/22 00:01:56;;;;;;;;;;;;;;;3.58;79.28;96392.28;5014580;28;19960;-76
2022/02/22 00:04:22;;;;;;;;;;;;;;;3.58;78.23;96399.28;5014894;28;19950;-75
2022/02/22 00:06:47;;;;;;;;;;;;;;;3.58;79.03;96407.06;5014614;28;19960;-76
2022/02/22 00:09:13;;;;;;;;;;;;;;;3.59;77.68;96409.47;5014559;28;20321;-76
2022/02/22 00:11:39;;;;;;;;;;;;;;;3.61;77.51;96401.50;5014539;28;19977;-75
2022/02/22 00:14:05;;;;;;;;;;;;;;;3.62;78.34;96403.94;5014169;28;20047;-76
2022/02/22 00:16:31;;;;;;;;;;;;;;;3.62;77.45;96403.13;5014511;28;19961;-76
2022/02/22 00:18:57;;;;;;;;;;;;;;;3.61;77.45;96409.28;5014269;28;20447;-76
2022/02/22 00:21:23;;;;;;;;;;;;;;;3.60;76.93;96405.09;5014137;28;20416;-76
2022/02/22 00:23:49;;;;;;;;;;;;;;;3.60;77.44;96416.25;5014250;28;20407;-77
2022/02/22 00:26:15;;;;;;;;;;;;;;;3.60;76.63;96412.88;5014357;28;20012;-77
2022/02/22 00:28:40;;;;;;;;;;;;;;;3.57;77.00;96427.00;5014327;28;19990;-76
2022/02/22 00:31:06;;;;;;;;;;;;;;;3.57;76.35;96405.41;5014089;28;20031;-76
2022/02/22 00:33:33;;;;;;;;;;;;;;;3.55;77.51;96420.34;5014099;28;20370;-77
2022/02/22 00:35:59;;;;;;;;;;;;;;;3.52;76.16;96415.53;4980544;28;19954;-76
2022/02/22 00:38:25;;;;;;;;;;;;;;;3.52;76.09;96418.91;4995833;28;20488;-77
2022/02/22 00:40:51;;;;;;;;;;;;;;;3.51;75.46;96409.53;5013912;28;19967;-76
2022/02/22 00:43:17;;;;;;;;;;;;;;;3.52;74.87;96412.94;4986471;28;20077;-76
2022/02/22 00:45:43;;;;;;;;;;;;;;;3.50;74.81;96436.44;4991663;28;20044;-76
2022/02/22 00:48:08;;;;;;;;;;;;;;;3.48;75.52;96445.38;4977449;28;19960;-76
2022/02/22 00:50:34;;;;;;;;;;;;;;;3.43;75.58;96446.69;4994171;28;19954;-76
2022/02/22 00:53:00;;;;;;;;;;;;;;;3.43;75.70;96448.47;4994416;28;20048;-79
2022/02/22 00:55:26;;;;;;;;;;;;;;;3.39;75.63;96448.00;4994293;28;19979;-76
2022/02/22 00:57:52;;;;;;;;;;;;;;;3.36;76.52;96463.94;4994273;28;20329;-77
2022/02/22 01:00:18;;;;;;;;;;;;;;;3.35;75.97;96470.06;4994237;28;19973;-76
2022/02/22 01:02:44;;;;;;;;;;;;;;;3.35;76.39;96472.66;4994346;28;19958;-76
2022/02/22 01:05:10;;;;;;;;;;;;;;;3.35;75.86;96477.03;4994149;28;19947;-76
2022/02/22 01:07:36;;;;;;;;;;;;;;;3.35;76.61;96483.03;4994030;28;20438;-76
2022/02/22 01:10:03;;;;;;;;;;;;;;;3.35;76.09;96490.00;4994223;28;19952;-76
2022/02/22 01:12:29;;;;;;;;;;;;;;;3.36;77.21;96495.03;4994056;28;19955;-76
2022/02/22 01:14:54;;;;;;;;;;;;;;;3.36;76.93;96489.84;4994286;28;19993;-76
2022/02/22 01:17:20;;;;;;;;;;;;;;;3.36;77.55;96502.81;4976850;28;19994;-76
2022/02/22 01:19:46;;;;;;;;;;;;;;;3.38;77.25;96502.63;4994101;28;20360;-75
2022/02/22 01:22:12;;;;;;;;;;;;;;;3.38;77.84;96513.81;4994137;28;20369;-76
2022/02/22 01:24:39;;;;;;;;;;;;;;;3.42;78.62;96524.63;4994130;28;19949;-76
2022/02/22 01:27:05;;;;;;;;;;;;;;;3.43;78.15;96511.50;4993867;28;19967;-76
2022/02/22 01:29:31;;;;;;;;;;;;;;;3.44;78.51;96513.13;4994084;28;19954;-76
2022/02/22 01:31:57;;;;;;;;;;;;;;;3.43;77.46;96519.28;4993870;28;20330;-76
2022/02/22 01:34:23;;;;;;;;;;;;;;;3.42;79.16;96522.88;4993837;28;19952;-76
2022/02/22 01:36:50;;;;;;;;;;;;;;;3.42;78.78;96535.00;4994109;28;20292;-76
2022/02/22 01:39:15;;;;;;;;;;;;;;;3.39;77.69;96530.97;4993992;28;19960;-76
2022/02/22 01:41:44;;;;;;;;;;;;;;;3.38;78.98;96531.97;4993942;28;20004;-76
2022/02/22 01:44:11;;;;;;;;;;;;;;;3.36;78.09;96539.09;5007960;28;19983;-76
2022/02/22 01:46:37;;;;;;;;;;;;;;;3.37;78.63;96545.88;5000385;28;20432;-75
2022/02/22 01:49:03;;;;;;;;;;;;;;;3.38;79.78;96552.69;5007450;28;19960;-76
2022/02/22 01:51:29;;;;;;;;;;;;;;;3.40;80.14;96549.91;5016866;28;20321;-77
2022/02/22 01:53:54;;;;;;;;;;;;;;;3.42;80.40;96548.78;5004504;28;19996;-76
2022/02/22 01:56:21;;;;;;;;;;;;;;;3.44;81.39;96548.59;5008763;28;19955;-76
2022/02/22 01:58:47;;;;;;;;;;;;;;;3.42;79.45;96543.59;5013424;28;19965;-76
2022/02/22 02:01:13;;;;;;;;;;;;;;;3.39;79.98;96543.94;5007824;28;19968;-76
2022/02/22 02:03:39;;;;;;;;;;;;;;;3.38;81.65;96549.28;5010114;28;20312;-77
2022/02/22 02:06:05;;;;;;;;;;;;;;;3.38;81.14;96549.28;4985613;28;20012;-76
2022/02/22 02:08:30;;;;;;;;;;;;;;;3.37;80.94;96545.09;5006282;28;19957;-76
2022/02/22 02:10:56;;;;;;;;;;;;;;;3.32;80.49;96531.81;5010797;28;19953;-76
2022/02/22 02:13:22;;;;;;;;;;;;;;;3.28;80.10;96538.34;5006563;28;19989;-78
2022/02/22 02:15:48;;;;;;;;;;;;;;;3.23;80.31;96531.88;4997691;28;19957;-76
2022/02/22 02:18:14;;;;;;;;;;;;;;;3.20;80.35;96532.19;5005835;28;20331;-75
2022/02/22 02:20:40;;;;;;;;;;;;;;;3.17;80.10;96542.91;5007875;28;20368;-75
2022/02/22 02:23:06;;;;;;;;;;;;;;;3.14;79.84;96543.22;4989957;28;20393;-75
2022/02/22 02:25:32;;;;;;;;;;;;;;;3.10;79.66;96543.75;5000472;28;19963;-76
2022/02/22 02:27:58;;;;;;;;;;;;;;;3.05;79.85;96542.47;5005963;28;20047;-75
2022/02/22 02:30:23;;;;;;;;;;;;;;;3.01;79.79;96554.13;5005814;28;19962;-75
2022/02/22 02:32:49;;;;;;;;;;;;;;;2.98;79.18;96551.06;5007197;28;20003;-75
2022/02/22 02:35:15;;;;;;;;;;;;;;;2.96;79.16;96540.06;5004201;28;20041;-75
2022/02/22 02:37:41;;;;;;;;;;;;;;;2.95;78.86;96541.84;5005121;28;20415;-75
2022/02/22 02:40:09;;;;;;;;;;;;;;;2.94;78.97;96548.03;5009640;28;19960;-75
2022/02/22 02:42:40;;;;;;;;;;;;;;;2.93;79.12;96543.78;5007868;28;19954;-76
2022/02/22 02:45:06;;;;;;;;;;;;;;;2.94;78.22;96539.41;5005104;28;19956;-75
2022/02/22 02:47:32;;;;;;;;;;;;;;;2.92;78.17;96539.59;5006466;28;20374;-76
2022/02/22 02:49:58;;;;;;;;;;;;;;;2.92;78.03;96546.53;5004537;28;19958;-75
2022/02/22 02:52:24;;;;;;;;;;;;;;;2.91;77.71;96548.34;5010819;28;19970;-75
2022/02/22 02:54:50;;;;;;;;;;;;;;;2.91;77.78;96552.72;5000352;28;19980;-75
2022/02/22 02:57:15;;;;;;;;;;;;;;;2.83;77.90;96551.78;5007828;28;19953;-75
2022/02/22 02:59:41;;;;;;;;;;;;;;;2.80;77.90;96572.00;5008146;28;19955;-75
2022/02/22 03:02:07;;;;;;;;;;;;;;;2.74;77.74;96565.72;5007021;28;19974;-76
2022/02/22 03:04:33;;;;;;;;;;;;;;;2.72;77.89;96584.97;4988617;28;19965;-75
2022/02/22 03:06:59;;;;;;;;;;;;;;;2.68;77.76;96578.50;5007471;28;20012;-77
2022/02/22 03:09:25;;;;;;;;;;;;;;;2.67;77.83;96584.66;4999220;28;20000;-75
2022/02/22 03:11:51;;;;;;;;;;;;;;;2.67;78.00;96580.28;5002078;28;19957;-75
2022/02/22 03:14:16;;;;;;;;;;;;;;;2.67;77.34;96577.72;4993625;28;20023;-75
2022/02/22 03:16:42;;;;;;;;;;;;;;;2.66;77.73;96581.25;5004145;28;20004;-75
2022/02/22 03:19:11;;;;;;;;;;;;;;;2.66;77.38;96585.63;5003898;28;19958;-75
2022/02/22 03:21:36;;;;;;;;;;;;;;;2.63;77.63;96597.94;5009319;28;19964;-75
2022/02/22 03:24:02;;;;;;;;;;;;;;;2.60;77.51;96602.63;5005614;28;19993;-76
2022/02/22 03:26:28;;;;;;;;;;;;;;;2.60;77.67;96610.38;5002251;28;20044;-76
2022/02/22 03:28:55;;;;;;;;;;;;;;;2.59;77.68;96612.19;4972093;28;19965;-75
2022/02/22 03:31:21;;;;;;;;;;;;;;;2.60;78.10;96618.16;5011362;28;19955;-76
2022/02/22 03:33:52;;;;;;;;;;;;;;;2.59;78.25;96626.91;5007169;28;19955;-75
2022/02/22 03:36:21;;;;;;;;;;;;;;;2.59;78.07;96624.31;4965759;28;19960;-75
2022/02/22 03:38:47;;;;;;;;;;;;;;;2.60;78.21;96634.53;5008144;28;19958;-76
2022/02/22 03:41:14;;;;;;;;;;;;;;;2.62;78.01;96639.50;5007222;28;19962;-76
2022/02/22 03:43:39;;;;;;;;;;;;;;;2.60;77.97;96641.47;4980972;28;19973;-76
2022/02/22 03:46:05;;;;;;;;;;;;;;;2.59;78.29;96639.84;4995457;28;19980;-76
2022/02/22 03:48:31;;;;;;;;;;;;;;;2.58;77.88;96646.81;4995091;28;19958;-75
2022/02/22 03:50:57;;;;;;;;;;;;;;;2.56;78.30;96661.72;4995338;28;19998;-76
2022/02/22 03:53:23;;;;;;;;;;;;;;;2.55;78.24;96665.25;4995124;28;19959;-76
2022/02/22 03:55:49;;;;;;;;;;;;;;;2.55;78.39;96659.28;4995119;28;19979;-76
2022/02/22 03:58:14;;;;;;;;;;;;;;;2.54;78.79;96663.66;4995211;28;20052;-76
2022/02/22 04:00:40;;;;;;;;;;;;;;;2.54;79.00;96671.41;4994677;28;20020;-76
2022/02/22 04:03:08;;;;;;;;;;;;;;;2.53;79.05;96674.97;4995152;28;19954;-76
2022/02/22 04:05:34;;;;;;;;;;;;;;;2.52;79.21;96682.88;4995065;28;19958;-76
2022/02/22 04:08:00;;;;;;;;;;;;;;;2.53;78.78;96679.34;4994810;28;19975;-76
2022/02/22 04:10:27;;;;;;;;;;;;;;;2.54;78.89;96686.94;4994569;28;19960;-76
2022/02/22 04:12:52;;;;;;;;;;;;;;;2.54;79.27;96691.28;4995005;28;19952;-75
2022/02/22 04:15:18;;;;;;;;;;;;;;;2.50;78.97;96698.59;4994712;28;20466;-76
2022/02/22 04:17:44;;;;;;;;;;;;;;;2.44;78.87;96694.84;4977590;28;20364;-76
2022/02/22 04:20:11;;;;;;;;;;;;;;;2.46;79.26;96705.06;4994678;28;19963;-75
2022/02/22 04:22:37;;;;;;;;;;;;;;;2.46;78.79;96702.47;4995169;28;19969;-76
2022/02/22 04:25:03;;;;;;;;;;;;;;;2.49;79.12;96711.69;4977381;28;20413;-76
2022/02/22 04:27:29;;;;;;;;;;;;;;;2.50;79.37;96718.47;4994812;28;20416;-75
2022/02/22 04:29:55;;;;;;;;;;;;;;;2.49;79.00;96716.88;4994731;28;19996;-76
2022/02/22 04:32:21;;;;;;;;;;;;;;;2.46;79.26;96720.59;4976957;28;20388;-76
2022/02/22 04:34:49;;;;;;;;;;;;;;;2.41;79.45;96723.63;4994682;28;19959;-76
2022/02/22 04:37:16;;;;;;;;;;;;;;;2.37;78.62;96711.16;4994403;28;19952;-76
2022/02/22 04:39:42;;;;;;;;;;;;;;;2.33;78.93;96723.66;4994932;28;19957;-75
2022/02/22 04:42:08;;;;;;;;;;;;;;;2.33;78.51;96718.47;4994212;28;19970;-75
2022/02/22 04:44:34;;;;;;;;;;;;;;;2.33;78.53;96707.28;5003173;28;20031;-75
2022/02/22 04:47:00;;;;;;;;;;;;;;;2.35;78.35;96715.69;4994568;28;19971;-76
2022/02/22 04:49:26;;;;;;;;;;;;;;;2.35;78.39;96711.34;5010146;28;19958;-76
2022/02/22 04:51:52;;;;;;;;;;;;;;;2.36;78.37;96731.06;5003404;28;20021;-75
2022/02/22 04:54:18;;;;;;;;;;;;;;;2.36;78.02;96719.91;5000543;28;19950;-75
2022/02/22 04:56:44;;;;;;;;;;;;;;;2.36;77.93;96719.91;5002855;28;19960;-75
2022/02/22 04:59:10;;;;;;;;;;;;;;;2.36;78.18;96732.88;4965645;28;20058;-75
2022/02/22 05:01:35;;;;;;;;;;;;;;;2.41;77.44;96725.41;5004375;28;20015;-75
2022/02/22 05:04:01;;;;;;;;;;;;;;;2.43;77.97;96726.06;5003768;28;19953;-75
2022/02/22 05:06:27;;;;;;;;;;;;;;;2.41;77.69;96728.00;5007898;28;20427;-75
2022/02/22 05:08:53;;;;;;;;;;;;;;;2.41;77.39;96728.00;5003688;28;19953;-75
2022/02/22 05:11:19;;;;;;;;;;;;;;;2.42;77.36;96724.47;5000150;28;19957;-77
2022/02/22 05:13:45;;;;;;;;;;;;;;;2.42;77.31;96722.69;5006102;28;20414;-76
2022/02/22 05:16:11;;;;;;;;;;;;;;;2.43;77.14;96734.63;5005016;28;19966;-74
2022/02/22 05:18:37;;;;;;;;;;;;;;;2.42;77.32;96742.59;4988597;28;20406;-74
2022/02/22 05:21:03;;;;;;;;;;;;;;;2.38;77.30;96743.88;5001146;28;19962;-74
2022/02/22 05:23:35;;;;;;;;;;;;;;;2.36;77.65;96743.22;5009141;28;19956;-75
2022/02/22 05:26:02;;;;;;;;;;;;;;;2.33;77.92;96754.69;5010856;28;19949;-74
2022/02/22 05:28:27;;;;;;;;;;;;;;;2.29;77.44;96750.81;5007741;28;19952;-75
2022/02/22 05:30:53;;;;;;;;;;;;;;;2.26;77.59;96752.88;5005469;28;19956;-75
2022/02/22 05:33:20;;;;;;;;;;;;;;;2.23;77.49;96760.00;5007350;28;20414;-75
2022/02/22 05:35:46;;;;;;;;;;;;;;;2.20;77.39;96756.91;5012523;28;19962;-75
2022/02/22 05:38:12;;;;;;;;;;;;;;;2.17;77.43;96768.38;5004815;28;19965;-75
2022/02/22 05:40:38;;;;;;;;;;;;;;;2.14;76.73;96763.53;5007287;28;19955;-76
2022/02/22 05:43:04;;;;;;;;;;;;;;;2.14;77.00;96765.28;5013593;28;19991;-75
2022/02/22 05:45:30;;;;;;;;;;;;;;;2.13;77.16;96769.66;5005219;28;19960;-75
2022/02/22 05:47:56;;;;;;;;;;;;;;;2.12;77.27;96765.47;5003202;28;19956;-76
2022/02/22 05:50:22;;;;;;;;;;;;;;;2.09;77.57;96775.31;5004964;28;19989;-75
2022/02/22 05:52:48;;;;;;;;;;;;;;;2.07;77.90;96782.41;5007740;28;19959;-75
2022/02/22 05:55:14;;;;;;;;;;;;;;;2.00;77.95;96785.63;5007031;28;20406;-76
2022/02/22 05:57:40;;;;;;;;;;;;;;;1.92;77.56;96783.00;5007550;28;20347;-76
2022/02/22 06:00:07;;;;;;;;;;;;;;;1.90;78.35;96800.44;5010036;28;20362;-75
2022/02/22 06:02:33;;;;;;;;;;;;;;;1.90;78.27;96802.25;5002983;28;19979;-75
2022/02/22 06:04:59;;;;;;;;;;;;;;;1.89;78.50;96809.19;5010185;28;19952;-75
2022/02/22 06:07:25;;;;;;;;;;;;;;;1.88;78.04;96811.94;5011337;28;19948;-75
2022/02/22 06:09:51;;;;;;;;;;;;;;;1.81;78.18;96820.28;5008572;28;20420;-75
2022/02/22 06:12:17;;;;;;;;;;;;;;;1.76;78.55;96819.13;5004805;28;19958;-75
2022/02/22 06:14:43;;;;;;;;;;;;;;;1.73;78.38;96822.03;5006073;28;19956;-76
2022/02/22 06:17:09;;;;;;;;;;;;;;;1.71;78.58;96829.13;4989287;28;19992;-76
2022/02/22 06:19:35;;;;;;;;;;;;;;;1.70;78.72;96828.31;5010740;28;19961;-76
2022/02/22 06:22:00;;;;;;;;;;;;;;;1.70;78.81;96822.31;5006509;28;19965;-76
2022/02/22 06:24:26;;;;;;;;;;;;;;;1.70;78.80;96822.31;5006363;28;19956;-75
2022/02/22 06:26:52;;;;;;;;;;;;;;;1.69;78.60;96825.88;5001751;28;20349;-76
2022/02/22 06:29:18;;;;;;;;;;;;;;;1.69;78.84;96834.44;5003286;28;20418;-76
2022/02/22 06:31:44;;;;;;;;;;;;;;;1.70;78.54;96822.31;4989535;28;20052;-76
2022/02/22 06:34:10;;;;;;;;;;;;;;;1.68;78.63;96835.41;4994699;28;20433;-75
2022/02/22 06:36:36;;;;;;;;;;;;;;;1.69;78.86;96839.63;5005244;28;20504;-76
2022/02/22 06:39:02;;;;;;;;;;;;;;;1.71;78.68;96842.06;5004350;28;20413;-78
2022/02/22 06:41:27;;;;;;;;;;;;;;;1.73;78.76;96853.06;5011835;28;20070;-75
2022/02/22 06:43:53;;;;;;;;;;;;;;;1.74;78.49;96858.09;4996940;28;19985;-76
2022/02/22 06:46:19;;;;;;;;;;;;;;;1.76;78.74;96866.47;4989274;28;20440;-75
2022/02/22 06:48:45;;;;;;;;;;;;;;;1.96;78.64;96871.47;4988973;28;20008;-75
2022/02/22 06:51:11;;;;;;;;;;;;;;;2.51;78.10;96865.88;5005851;28;19956;-75
2022/02/22 06:53:37;;;;;;;;;;;;;;;3.16;76.79;96856.63;5006251;28;19959;-76
2022/02/22 06:56:03;;;;;;;;;;;;;;;3.81;75.00;96864.38;5006288;28;20001;-76
2022/02/22 06:58:29;;;;;;;;;;;;;;;4.40;73.42;96852.88;5011055;28;19956;-75
2022/02/22 07:00:56;;;;;;;;;;;;;;;4.51;72.18;96849.09;5002526;28;19953;-76
2022/02/22 07:03:22;;;;;;;;;;;;;;;4.60;72.07;96855.84;5003678;28;19963;-76
2022/02/22 07:05:48;;;;;;;;;;;;;;;5.03;71.35;96858.88;5007302;28;19955;-75
2022/02/22 07:08:14;;;;;;;;;;;;;;;5.49;69.89;96849.25;5006183;28;19989;-76
2022/02/22 07:10:40;;;;;;;;;;;;;;;5.98;69.77;96852.41;5005657;28;19954;-75
2022/02/22 07:13:06;;;;;;;;;;;;;;;6.21;67.54;96827.09;4990276;28;19961;-76
2022/02/22 07:15:32;;;;;;;;;;;;;;;6.33;67.69;96831.84;5006105;28;19974;-76
2022/02/22 07:18:02;;;;;;;;;;;;;;;6.55;67.28;96840.53;5004427;28;19957;-76
2022/02/22 07:20:28;;;;;;;;;;;;;;;6.88;66.54;96838.31;4999501;28;20411;-77
2022/02/22 07:22:57;;;;;;;;;;;;;;;7.14;64.85;96816.06;5004287;28;19976;-76
2022/02/22 07:25:24;;;;;;;;;;;;;;;7.20;62.48;96797.91;5008374;28;19962;-76
2022/02/22 07:27:50;;;;;;;;;;;;;;;7.21;64.11;96822.97;5011596;28;19959;-75
2022/02/22 07:30:18;;;;;;;;;;;;;;;7.44;62.21;96795.88;5003534;28;20333;-76
2022/02/22 07:32:45;;;;;;;;;;;;;;;7.58;62.72;96815.03;5002955;28;19954;-76
2022/02/22 07:35:11;;;;;;;;;;;;;;;7.23;61.64;96812.38;4989401;28;19951;-76
2022/02/22 07:37:38;;;;;;;;;;;;;;;6.96;62.48;96832.97;5004045;28;20293;-76
2022/02/22 07:40:04;;;;;;;;;;;;;;;6.64;62.76;96842.84;5011471;28;19964;-77
2022/02/22 07:42:30;;;;;;;;;;;;;;;6.27;61.95;96830.78;4969226;28;20445;-76
2022/02/22 07:44:56;;;;;;;;;;;;;;;6.11;63.38;96852.63;5002318;28;19960;-76
2022/02/22 07:47:22;;;;;;;;;;;;;;;6.13;63.71;96868.84;4987756;28;20047;-76
2022/02/22 07:49:48;;;;;;;;;;;;;;;6.54;64.22;96875.41;5003734;28;19992;-78
2022/02/22 07:52:14;;;;;;;;;;;;;;;6.92;62.79;96870.84;5010845;28;19955;-76
2022/02/22 07:54:40;;;;;;;;;;;;;;;7.36;61.21;96840.38;5004577;28;20019;-76
2022/02/22 07:57:05;;;;;;;;;;;;;;;7.61;59.85;96827.72;4998880;28;20003;-76
2022/02/22 07:59:31;;;;;;;;;;;;;;;7.51;61.29;96846.31;5002036;28;20390;-76
2022/02/22 08:01:57;;;;;;;;;;;;;;;7.56;62.33;96874.44;5005186;28;19998;-77
2022/02/22 08:04:26;;;;;;;;;;;;;;;7.58;60.18;96867.25;4991427;28;19961;-77
2022/02/22 08:06:54;;;;;;;;;;;;;;;7.50;61.16;96878.63;4999202;28;19959;-77
2022/02/22 08:09:19;;;;;;;;;;;;;;;7.38;61.62;96890.56;5005539;28;19957;-76
2022/02/22 08:11:46;;;;;;;;;;;;;;;7.13;61.97;96903.97;4991328;28;20473;-78
2022/02/22 08:14:12;;;;;;;;;;;;;;;6.91;64.01;96940.44;5007008;28;19964;-77
2022/02/22 08:16:37;;;;;;;;;;;;;;;6.69;65.15;96949.16;4998584;28;19961;-76
2022/02/22 08:19:03;;;;;;;;;;;;;;;6.43;62.98;96934.00;5004967;28;19983;-77
2022/02/22 08:21:29;;;;;;;;;;;;;;;6.24;66.13;96971.78;4977746;28;20472;-77
2022/02/22 08:23:55;;;;;;;;;;;;;;;6.06;66.34;96974.72;5001216;28;20000;-77
2022/02/22 08:26:21;;;;;;;;;;;;;;;5.86;66.45;96982.19;4986871;28;19956;-76
2022/02/22 08:28:47;;;;;;;;;;;;;;;5.68;67.03;96980.66;5005648;28;19986;-75
2022/02/22 08:31:13;;;;;;;;;;;;;;;5.56;67.55;96995.03;5007874;28;20010;-75
2022/02/22 08:33:39;;;;;;;;;;;;;;;5.46;68.92;97023.09;4989104;28;19948;-75
2022/02/22 08:36:05;;;;;;;;;;;;;;;5.39;68.96;97012.53;4983032;28;20045;-75
2022/02/22 08:38:31;;;;;;;;;;;;;;;5.35;68.96;97016.47;4987666;28;19956;-76
2022/02/22 08:40:57;;;;;;;;;;;;;;;5.27;68.48;97004.31;5006263;28;19957;-75
2022/02/22 08:43:23;;;;;;;;;;;;;;;5.21;68.81;97009.41;4991624;28;19975;-75
2022/02/22 08:45:48;;;;;;;;;;;;;;;5.18;69.20;97022.72;4984240;28;19965;-76
2022/02/22 08:48:15;;;;;;;;;;;;;;;5.13;69.04;97015.44;5004228;28;19957;-77
2022/02/22 08:50:41;;;;;;;;;;;;;;;5.11;69.96;97025.19;5010598;28;19960;-76
2022/02/22 08:53:07;;;;;;;;;;;;;;;5.09;70.35;97035.75;5003250;28;19950;-76
2022/02/22 08:55:33;;;;;;;;;;;;;;;5.12;69.65;97018.19;5001394;28;20429;-76
2022/02/22 08:57:59;;;;;;;;;;;;;;;5.15;70.00;97023.06;4990211;28;20397;-76
2022/02/22 09:00:26;;;;;;;;;;;;;;;5.16;70.26;97028.09;5004283;28;19947;-76
2022/02/22 09:02:57;;;;;;;;;;;;;;;5.19;69.72;97025.16;5003079;28;19965;-76
2022/02/22 09:05:24;;;;;;;;;;;;;;;5.20;69.27;97018.97;5002450;28;19959;-76
2022/02/22 09:07:50;;;;;;;;;;;;;;;5.26;70.16;97035.69;4982596;28;20413;-76
2022/02/22 09:10:16;;;;;;;;;;;;;;;5.31;68.53;97024.78;5002379;28;19954;-78
2022/02/22 09:12:43;;;;;;;;;;;;;;;5.34;69.83;97030.47;5006560;28;20404;-76
2022/02/22 09:15:10;;;;;;;;;;;;;;;5.38;70.20;97030.94;5003831;28;19958;-76
2022/02/22 09:17:36;;;;;;;;;;;;;;;5.36;69.00;97023.28;5003724;28;19967;-76
2022/02/22 09:20:04;;;;;;;;;;;;;;;5.36;69.30;97022.50;4999455;28;19963;-76
2022/02/22 09:22:29;;;;;;;;;;;;;;;5.34;69.06;97029.66;4981805;28;19981;-76
2022/02/22 09:24:55;;;;;;;;;;;;;;;5.29;69.10;97040.53;5006168;28;20007;-76
2022/02/22 09:27:21;;;;;;;;;;;;;;;5.28;69.10;97036.34;5005575;28;19969;-76
2022/02/22 09:29:47;;;;;;;;;;;;;;;5.27;68.15;97021.69;4988079;28;19985;-76
2022/02/22 09:32:13;;;;;;;;;;;;;;;5.24;67.93;97028.06;5011362;28;19961;-76
2022/02/22 09:34:40;;;;;;;;;;;;;;;5.23;68.23;97028.25;5001764;28;19989;-76
2022/02/22 09:37:06;;;;;;;;;;;;;;;5.22;68.90;97045.63;5004199;28;19944;-76
2022/02/22 09:39:34;;;;;;;;;;;;;;;5.20;68.14;97031.97;5003215;28;20321;-76
2022/02/22 09:42:00;;;;;;;;;;;;;;;5.23;68.24;97034.25;4998473;28;19972;-75
2022/02/22 09:44:26;;;;;;;;;;;;;;;5.28;69.73;97041.53;5001781;28;19976;-76
2022/02/22 09:46:52;;;;;;;;;;;;;;;5.37;69.44;97044.91;5001352;28;20414;-76
2022/02/22 09:49:18;;;;;;;;;;;;;;;5.42;68.93;97035.63;5007627;28;19965;-76
2022/02/22 09:51:44;;;;;;;;;;;;;;;5.53;68.86;97034.44;5007048;28;20042;-75
2022/02/22 09:54:10;;;;;;;;;;;;;;;5.62;67.89;97030.78;5003158;28;19960;-76
2022/02/22 09:56:46;;;;;;;;;;;;;;;5.78;69.36;97044.69;4984722;28;19950;-76
2022/02/22 09:59:12;;;;;;;;;;;;;;;5.95;67.92;97022.00;4989607;28;19953;-75
2022/02/22 10:01:42;;;;;;;;;;;;;;;6.05;67.66;97023.38;4998087;28;20406;-75
2022/02/22 10:04:08;;;;;;;;;;;;;;;6.13;66.76;97012.06;5000575;28;19964;-76
2022/02/22 10:06:34;;;;;;;;;;;;;;;6.25;66.96;97022.88;5003543;28;20326;-76
2022/02/22 10:09:00;;;;;;;;;;;;;;;6.39;67.78;97024.72;5014590;28;19997;-76
2022/02/22 10:11:26;;;;;;;;;;;;;;;6.64;67.40;97022.69;5007515;28;19964;-76
2022/02/22 10:13:52;;;;;;;;;;;;;;;6.88;66.62;97013.78;4988971;28;20035;-77
2022/02/22 10:16:19;;;;;;;;;;;;;;;7.11;65.65;97002.44;5015317;28;20454;-76
2022/02/22 10:18:52;;;;;;;;;;;;;;;7.29;64.48;96978.59;5007056;28;19958;-77
2022/02/22 10:21:18;;;;;;;;;;;;;;;7.49;63.97;96973.56;5003856;28;19955;-76
2022/02/22 10:23:44;;;;;;;;;;;;;;;7.74;64.37;96979.25;5013223;28;19977;-76
2022/02/22 10:26:24;;;;;;;;;;;;;;;8.04;63.81;96974.69;5006233;28;19965;-77
2022/02/22 10:28:50;;;;;;;;;;;;;;;8.31;62.58;96949.56;4987919;28;19962;-76
2022/02/22 10:31:16;;;;;;;;;;;;;;;8.35;59.94;96916.00;5004048;28;19953;-76
2022/02/22 10:33:47;;;;;;;;;;;;;;;8.32;62.73;96959.03;5008195;28;19988;-76
2022/02/22 10:36:17;;;;;;;;;;;;;;;8.25;61.98;96952.97;5009831;28;19948;-76
2022/02/22 10:38:43;;;;;;;;;;;;;;;8.11;61.59;96957.25;5002029;28;19956;-76
2022/02/22 10:41:14;;;;;;;;;;;;;;;7.89;61.43;96961.69;5007275;28;20402;-76
2022/02/22 10:43:41;;;;;;;;;;;;;;;7.71;61.96;96969.19;5008165;28;19978;-76
2022/02/22 10:46:08;;;;;;;;;;;;;;;7.59;62.72;96983.72;5008862;28;19965;-76
2022/02/22 10:48:35;;;;;;;;;;;;;;;7.46;62.44;96984.38;5007303;28;20314;-76
2022/02/22 10:51:02;;;;;;;;;;;;;;;7.36;64.07;97002.94;4996798;28;19961;-75
2022/02/22 10:53:29;;;;;;;;;;;;;;;7.27;63.73;97006.66;5007945;28;19957;-76
2022/02/22 10:55:56;;;;;;;;;;;;;;;7.14;64.17;97007.31;5005131;28;20007;-76
2022/02/22 10:58:23;;;;;;;;;;;;;;;7.05;64.52;97022.22;5008419;28;19957;-76
2022/02/22 11:00:49;;;;;;;;;;;;;;;6.98;64.37;97023.94;5000267;28;20411;-76
2022/02/22 11:03:15;;;;;;;;;;;;;;;6.93;64.74;97017.66;4986457;28;20407;-76
2022/02/22 11:05:40;;;;;;;;;;;;;;;6.90;66.29;97044.91;5006865;28;19951;-76
2022/02/22 11:08:06;;;;;;;;;;;;;;;6.89;66.15;97038.88;5008107;28;20005;-77
2022/02/22 11:10:33;;;;;;;;;;;;;;;6.89;66.38;97045.91;5003944;28;19958;-76
2022/02/22 11:13:00;;;;;;;;;;;;;;;6.86;66.42;97041.84;5004798;28;20310;-77
2022/02/22 11:15:33;;;;;;;;;;;;;;;6.85;66.50;97049.84;5008154;28;19969;-75
2022/02/22 11:18:06;;;;;;;;;;;;;;;6.84;67.32;97053.44;5010856;28;20418;-76
2022/02/22 11:20:35;;;;;;;;;;;;;;;6.86;68.67;97067.91;5002937;28;19962;-75
2022/02/22 11:23:03;;;;;;;;;;;;;;;6.87;67.39;97053.09;5006079;28;19978;-76
2022/02/22 11:25:34;;;;;;;;;;;;;;;6.86;67.93;97048.84;5006124;28;19947;-75
2022/02/22 11:28:07;;;;;;;;;;;;;;;6.87;67.69;97038.25;5004720;28;19959;-76
2022/02/22 11:30:33;;;;;;;;;;;;;;;6.80;68.54;97049.56;4985275;28;19957;-75
2022/02/22 11:33:00;;;;;;;;;;;;;;;6.75;68.94;97041.47;5009229;28;19956;-76
2022/02/22 11:35:28;;;;;;;;;;;;;;;6.79;69.17;97045.34;5004047;28;19970;-76
2022/02/22 11:38:05;;;;;;;;;;;;;;;6.83;69.15;97031.78;4984743;28;20413;-76
2022/02/22 11:40:31;;;;;;;;;;;;;;;6.91;68.76;97025.66;5006190;28;19964;-76
2022/02/22 11:43:12;;;;;;;;;;;;;;;6.98;68.31;97003.09;5005779;28;19992;-76
2022/02/22 11:45:39;;;;;;;;;;;;;;;7.05;68.96;97006.56;5004084;28;19993;-76
2022/02/22 11:48:20;;;;;;;;;;;;;;;7.09;68.69;97015.66;5002293;28;19958;-76
2022/02/22 11:50:47;;;;;;;;;;;;;;;7.08;67.69;96995.78;4975016;28;19951;-76
2022/02/22 11:53:19;;;;;;;;;;;;;;;7.05;67.71;96992.72;5002280;28;19954;-76
2022/02/22 11:55:45;;;;;;;;;;;;;;;7.02;68.14;96982.69;5000431;28;19982;-76
2022/02/22 11:58:19;;;;;;;;;;;;;;;7.03;67.91;96979.06;5006628;28;19966;-76
2022/02/22 12:00:46;;;;;;;;;;;;;;;7.10;68.11;96972.16;4989323;28;19963;-76
2022/02/22 12:03:13;;;;;;;;;;;;;;;7.21;67.22;96963.03;4999819;28;19946;-76
2022/02/22 12:05:44;;;;;;;;;;;;;;;7.29;66.47;96963.72;4988468;28;19955;-76
2022/02/22 12:08:18;;;;;;;;;;;;;;;7.39;65.83;96950.41;4988875;28;20607;-76
2022/02/22 12:10:45;;;;;;;;;;;;;;;7.50;64.50;96934.25;4988347;28;20348;-76
2022/02/22 12:13:12;;;;;;;;;;;;;;;7.57;64.96;96931.69;4997958;28;19958;-76
2022/02/22 12:15:39;;;;;;;;;;;;;;;7.56;63.92;96924.03;5005668;28;20423;-76
2022/02/22 12:18:11;;;;;;;;;;;;;;;7.58;64.69;96930.72;4995318;28;19960;-76
2022/02/22 12:20:37;;;;;;;;;;;;;;;7.66;62.73;96914.91;4992388;28;19953;-76
2022/02/22 12:23:03;;;;;;;;;;;;;;;7.81;63.61;96924.47;4986549;28;19963;-76
2022/02/22 12:25:29;;;;;;;;;;;;;;;7.93;62.96;96912.50;5001911;28;19964;-76
2022/02/22 12:27:59;;;;;;;;;;;;;;;7.98;63.69;96927.59;4986820;28;19951;-76
2022/02/22 12:30:29;;;;;;;;;;;;;;;8.01;62.13;96919.41;5006756;28;20336;-77
2022/02/22 12:32:54;;;;;;;;;;;;;;;8.01;63.28;96932.47;5006311;28;20469;-76
2022/02/22 12:35:29;;;;;;;;;;;;;;;8.00;62.94;96926.44;5002349;28;19996;-76
2022/02/22 12:37:55;;;;;;;;;;;;;;;7.99;62.87;96934.47;4998146;28;19952;-77
2022/02/22 12:40:21;;;;;;;;;;;;;;;7.97;63.23;96931.22;4996206;28;19961;-76
2022/02/22 12:42:47;;;;;;;;;;;;;;;7.97;62.47;96918.97;4983201;28;20461;-77
2022/02/22 12:45:16;;;;;;;;;;;;;;;7.97;62.00;96910.34;5005614;28;20008;-77
2022/02/22 12:47:42;;;;;;;;;;;;;;;8.01;62.40;96911.56;4997845;28;19969;-78
2022/02/22 12:50:09;;;;;;;;;;;;;;;8.08;62.13;96910.63;5008215;28;19958;-76
2022/02/22 12:52:35;;;;;;;;;;;;;;;8.12;61.63;96906.63;5008244;28;19979;-77
2022/02/22 12:55:08;;;;;;;;;;;;;;;8.18;62.40;96918.13;5009460;28;19982;-76